createdAt,value
2018-05-15T00:02:04.707Z,5.23
2018-05-15T00:04:31.660Z,5.73
2018-05-15T00:06:58.613Z,5.07
2018-05-15T00:09:24.836Z,5.97
2018-05-15T00:11:51.753Z,4.80
2018-05-15T00:14:17.967Z,5.23
2018-05-15T00:16:44.149Z,4.60
2018-05-15T00:19:10.333Z,5.37
2018-05-15T00:21:36.550Z,5.30
2018-05-15T00:24:02.806Z,5.07
2018-05-15T00:26:29.754Z,5.47
2018-05-15T00:28:55.939Z,5.30
2018-05-15T00:31:22.187Z,5.10
2018-05-15T00:33:48.359Z,4.77
2018-05-15T00:36:14.518Z,5.20
2018-05-15T00:38:40.706Z,4.90
2018-05-15T00:41:07.655Z,4.80
2018-05-15T00:43:33.824Z,5.50
2018-05-15T00:46:00.037Z,4.30
2018-05-15T00:48:26.221Z,5.30
2018-05-15T00:50:53.126Z,6.17
2018-05-15T00:53:19.352Z,5.10
2018-05-15T00:55:45.555Z,5.57
2018-05-15T00:58:11.699Z,5.50
2018-05-15T01:00:37.839Z,4.57
2018-05-15T01:03:04.042Z,4.57
2018-05-15T01:05:30.243Z,4.77
2018-05-15T01:07:57.183Z,5.70
2018-05-15T01:10:24.124Z,5.07
2018-05-15T01:12:51.007Z,5.50
2018-05-15T01:15:17.244Z,5.00
2018-05-15T01:17:43.409Z,4.93
2018-05-15T01:20:09.658Z,4.43
2018-05-15T01:22:36.588Z,6.40
2018-05-15T01:25:03.550Z,4.77
2018-05-15T01:27:30.477Z,5.40
2018-05-15T01:29:57.451Z,5.40
2018-05-15T01:32:23.688Z,5.60
2018-05-15T01:34:49.855Z,4.93
2018-05-15T01:37:16.070Z,4.93
2018-05-15T01:39:42.291Z,4.90
2018-05-15T01:42:08.463Z,5.40
2018-05-15T01:44:34.630Z,5.90
2018-05-15T01:47:00.823Z,5.00
2018-05-15T01:49:27.733Z,5.27
2018-05-15T01:51:53.966Z,4.83
2018-05-15T01:54:20.080Z,5.60
2018-05-15T01:56:46.223Z,5.03
2018-05-15T01:59:12.423Z,5.07
2018-05-15T02:01:38.665Z,5.50
2018-05-15T02:04:04.892Z,5.23
2018-05-15T02:06:31.137Z,5.50
2018-05-15T02:08:57.276Z,5.80
2018-05-15T02:11:23.497Z,5.10
2018-05-15T02:13:49.708Z,5.07
2018-05-15T02:16:15.915Z,6.20
2018-05-15T02:18:42.110Z,6.20
2018-05-15T02:21:09.080Z,5.20
2018-05-15T02:23:35.289Z,5.40
2018-05-15T02:26:02.233Z,5.63
2018-05-15T02:28:28.482Z,5.87
2018-05-15T02:30:54.723Z,5.70
2018-05-15T02:33:20.855Z,5.60
2018-05-15T02:35:47.067Z,5.00
2018-05-15T02:38:13.297Z,7.23
2018-05-15T02:40:39.462Z,6.00
2018-05-15T02:43:05.717Z,5.93
2018-05-15T02:45:32.609Z,6.00
2018-05-15T02:47:58.800Z,6.10
2018-05-15T02:50:25.734Z,5.90
2018-05-15T02:52:52.681Z,5.90
2018-05-15T02:55:19.677Z,6.33
2018-05-15T02:57:45.820Z,6.07
2018-05-15T03:00:12.031Z,6.00
2018-05-15T03:02:38.216Z,6.40
2018-05-15T03:05:04.439Z,6.30
2018-05-15T03:07:31.423Z,6.70
2018-05-15T03:09:57.597Z,6.20
2018-05-15T03:12:23.780Z,6.30
2018-05-15T03:14:50.002Z,6.47
2018-05-15T03:17:16.206Z,6.23
2018-05-15T03:19:42.377Z,6.03
2018-05-15T03:22:08.662Z,6.07
2018-05-15T03:24:34.816Z,6.47
2018-05-15T03:27:00.966Z,5.80
2018-05-15T03:29:27.093Z,6.30
2018-05-15T03:31:53.339Z,6.50
2018-05-15T03:34:19.549Z,6.70
2018-05-15T03:36:45.756Z,6.50
2018-05-15T03:39:11.966Z,6.80
2018-05-15T03:41:38.173Z,6.67
2018-05-15T03:44:04.393Z,7.20
2018-05-15T03:46:31.321Z,6.03
2018-05-15T03:48:57.510Z,6.80
2018-05-15T03:51:23.724Z,6.10
2018-05-15T03:53:49.879Z,6.63
2018-05-15T03:56:16.125Z,7.20
2018-05-15T03:58:42.355Z,6.80
2018-05-15T04:01:20.744Z,6.60
2018-05-15T04:03:59.284Z,6.77
2018-05-15T04:06:37.721Z,6.57
2018-05-15T04:09:04.610Z,6.10
2018-05-15T04:11:30.779Z,6.90
2018-05-15T04:13:56.939Z,7.87
2018-05-15T04:16:23.978Z,7.43
2018-05-15T04:18:50.228Z,6.83
2018-05-15T04:21:16.381Z,7.13
2018-05-15T04:23:42.593Z,6.53
2018-05-15T04:26:08.777Z,6.50
2018-05-15T04:28:35.736Z,7.60
2018-05-15T04:31:02.663Z,6.67
2018-05-15T04:33:29.621Z,6.17
2018-05-15T04:35:56.526Z,6.97
2018-05-15T04:38:22.733Z,6.67
2018-05-15T04:40:48.892Z,6.37
2018-05-15T04:43:15.071Z,7.30
2018-05-15T04:45:41.226Z,6.80
2018-05-15T04:48:07.404Z,7.27
2018-05-15T04:50:34.322Z,7.13
2018-05-15T04:53:00.433Z,7.57
2018-05-15T04:55:26.637Z,6.10
2018-05-15T04:57:52.774Z,6.50
2018-05-15T05:00:19.975Z,6.63
2018-05-15T05:02:46.972Z,6.40
2018-05-15T05:05:13.193Z,6.33
2018-05-15T05:07:39.381Z,7.00
2018-05-15T05:10:06.402Z,6.57
2018-05-15T05:12:32.644Z,6.40
2018-05-15T05:14:59.557Z,6.50
2018-05-15T05:17:25.713Z,6.60
2018-05-15T05:20:02.894Z,6.17
2018-05-15T05:22:29.126Z,6.87
2018-05-15T05:24:56.046Z,7.00
2018-05-15T05:27:22.196Z,6.30
2018-05-15T05:29:49.151Z,7.30
2018-05-15T05:32:16.026Z,6.03
2018-05-15T05:34:42.218Z,5.90
2018-05-15T05:37:09.181Z,5.37
2018-05-15T05:39:35.314Z,5.70
2018-05-15T05:42:01.502Z,6.37
2018-05-15T05:44:28.045Z,6.63
2018-05-15T05:46:54.274Z,5.50
2018-05-15T05:49:20.434Z,6.13
2018-05-15T05:51:46.618Z,6.23
2018-05-15T05:54:12.822Z,6.67
2018-05-15T05:56:39.054Z,6.17
2018-05-15T05:59:05.296Z,6.80
2018-05-15T06:01:31.561Z,7.03
2018-05-15T06:03:58.451Z,6.30
2018-05-15T06:06:24.653Z,5.60
2018-05-15T06:08:50.888Z,5.87
2018-05-15T06:11:17.048Z,5.50
2018-05-15T06:13:43.255Z,6.17
2018-05-15T06:16:09.485Z,5.50
2018-05-15T06:18:35.735Z,6.13
2018-05-15T06:21:01.985Z,5.57
2018-05-15T06:23:28.858Z,5.13
2018-05-15T06:25:55.052Z,4.40
2018-05-15T06:28:21.211Z,5.30
2018-05-15T06:30:47.767Z,5.50
2018-05-15T06:33:13.932Z,5.60
2018-05-15T06:35:40.075Z,4.93
2018-05-15T06:38:07.175Z,5.43
2018-05-15T06:40:33.363Z,5.50
2018-05-15T06:43:00.290Z,5.40
2018-05-15T06:45:26.478Z,6.20
2018-05-15T06:47:52.688Z,6.80
2018-05-15T06:50:18.933Z,5.90
2018-05-15T06:52:45.112Z,5.20
2018-05-15T06:55:12.073Z,5.33
2018-05-15T06:57:38.300Z,6.30
2018-05-15T07:00:05.295Z,5.40
2018-05-15T07:02:31.529Z,4.40
2018-05-15T07:04:57.851Z,4.40
2018-05-15T07:07:23.998Z,3.97
2018-05-15T07:09:50.243Z,4.33
2018-05-15T07:12:17.206Z,4.40
2018-05-15T07:14:43.352Z,3.80
2018-05-15T07:17:09.558Z,3.77
2018-05-15T07:19:35.852Z,3.47
2018-05-15T07:22:02.053Z,4.07
2018-05-15T07:24:28.262Z,3.90
2018-05-15T07:26:54.400Z,4.00
2018-05-15T07:29:20.616Z,3.67
2018-05-15T07:31:46.824Z,3.67
2018-05-15T07:34:13.763Z,3.93
2018-05-15T07:36:40.739Z,4.57
2018-05-15T07:39:06.928Z,4.20
2018-05-15T07:41:33.069Z,3.80
2018-05-15T07:43:59.970Z,3.90
2018-05-15T07:46:26.133Z,4.73
2018-05-15T07:48:52.287Z,3.93
2018-05-15T07:51:18.476Z,3.77
2018-05-15T07:53:45.436Z,3.50
2018-05-15T07:56:11.657Z,3.17
2018-05-15T07:58:38.578Z,2.90
2018-05-15T08:01:04.786Z,3.33
2018-05-15T08:03:30.929Z,3.60
2018-05-15T08:05:57.123Z,2.90
2018-05-15T08:08:23.323Z,2.87
2018-05-15T08:10:50.273Z,2.77
2018-05-15T08:13:16.512Z,2.57
2018-05-15T08:15:42.695Z,2.80
2018-05-15T08:18:08.855Z,2.63
2018-05-15T08:20:35.011Z,2.57
2018-05-15T08:23:01.257Z,2.50
2018-05-15T08:25:27.508Z,2.70
2018-05-15T08:27:53.650Z,2.80
2018-05-15T08:30:20.627Z,2.77
2018-05-15T08:32:46.829Z,3.07
2018-05-15T08:35:13.758Z,2.90
2018-05-15T08:37:40.020Z,2.90
2018-05-15T08:40:06.117Z,2.80
2018-05-15T08:42:32.257Z,3.27
2018-05-15T08:44:59.161Z,2.60
2018-05-15T08:47:25.359Z,3.07
2018-05-15T08:49:51.594Z,2.97
2018-05-15T08:52:17.756Z,3.27
2018-05-15T08:54:44.671Z,3.40
2018-05-15T08:57:10.885Z,3.20
2018-05-15T08:59:37.120Z,3.13
2018-05-15T09:02:03.442Z,3.27
2018-05-15T09:04:29.661Z,2.93
2018-05-15T09:06:55.859Z,3.57
2018-05-15T09:09:22.041Z,2.77
2018-05-15T09:11:48.238Z,3.23
2018-05-15T09:14:15.136Z,2.77
2018-05-15T09:16:41.366Z,2.80
2018-05-15T09:19:07.523Z,2.90
2018-05-15T09:21:34.483Z,3.70
2018-05-15T09:24:00.691Z,3.23
2018-05-15T09:26:27.665Z,3.57
2018-05-15T09:28:53.898Z,3.00
2018-05-15T09:31:20.092Z,2.67
2018-05-15T09:33:47.070Z,2.60
2018-05-15T09:36:13.243Z,3.57
2018-05-15T09:38:39.443Z,3.20
2018-05-15T09:41:05.639Z,2.90
2018-05-15T09:46:27.764Z,2.97
2018-05-15T09:48:53.944Z,2.50
2018-05-15T09:51:20.130Z,3.23
2018-05-15T09:53:47.072Z,2.47
2018-05-15T09:56:13.984Z,3.10
2018-05-15T09:58:40.098Z,3.40
2018-05-15T10:01:06.311Z,2.70
2018-05-15T10:03:32.527Z,3.07
2018-05-15T10:05:58.677Z,3.70
2018-05-15T10:08:24.925Z,4.17
2018-05-15T10:10:51.149Z,3.63
2018-05-15T10:13:17.301Z,4.07
2018-05-15T10:15:43.464Z,3.77
2018-05-15T10:18:09.657Z,4.03
2018-05-15T10:20:35.887Z,4.00
2018-05-15T10:23:02.059Z,4.30
2018-05-15T10:25:28.253Z,3.97
2018-05-15T10:27:56.098Z,4.10
2018-05-15T10:30:22.344Z,4.30
2018-05-15T10:32:48.484Z,4.00
2018-05-15T10:35:14.697Z,3.90
2018-05-15T10:37:41.650Z,3.77
2018-05-15T10:40:08.558Z,3.50
2018-05-15T10:42:34.732Z,3.60
2018-05-15T10:45:00.882Z,3.60
2018-05-15T10:47:27.085Z,3.77
2018-05-15T10:49:54.006Z,3.93
2018-05-15T10:52:20.236Z,3.53
2018-05-15T10:54:47.195Z,3.77
2018-05-15T10:57:14.115Z,3.77
2018-05-15T10:59:40.433Z,3.90
2018-05-15T11:02:06.603Z,3.70
2018-05-15T11:04:33.494Z,3.87
2018-05-15T11:06:59.702Z,4.27
2018-05-15T11:09:25.870Z,3.47
2018-05-15T11:11:52.077Z,4.10
2018-05-15T11:14:18.274Z,3.80
2018-05-15T11:16:44.878Z,3.27
2018-05-15T11:19:24.084Z,3.50
2018-05-15T11:24:54.354Z,3.40
2018-05-15T11:27:20.555Z,3.60
2018-05-15T11:29:46.823Z,3.50
2018-05-15T11:32:13.800Z,3.87
2018-05-15T11:34:40.069Z,4.27
2018-05-15T11:37:06.295Z,4.73
2018-05-15T11:39:32.521Z,4.53
2018-05-15T11:41:58.694Z,4.50
2018-05-15T11:44:24.919Z,4.80
2018-05-15T11:46:51.106Z,5.20
2018-05-15T11:49:17.986Z,4.53
2018-05-15T11:51:44.767Z,4.30
2018-05-15T11:54:10.439Z,5.23
2018-05-15T11:56:37.414Z,4.87
2018-05-15T11:59:03.644Z,4.80
2018-05-15T12:01:29.786Z,4.50
2018-05-15T12:03:56.038Z,4.70
2018-05-15T12:06:22.209Z,4.60
2018-05-15T12:08:48.414Z,4.67
2018-05-15T12:11:15.398Z,4.60
2018-05-15T12:13:41.602Z,5.60
2018-05-15T12:16:07.786Z,5.00
2018-05-15T12:18:34.009Z,4.90
2018-05-15T12:21:00.210Z,5.03
2018-05-15T12:23:26.434Z,4.83
2018-05-15T12:25:52.672Z,5.10
2018-05-15T12:28:18.883Z,5.20
2018-05-15T12:30:45.064Z,5.00
2018-05-15T12:33:11.274Z,4.03
2018-05-15T12:35:37.487Z,3.13
2018-05-15T12:38:03.771Z,3.57
2018-05-15T12:40:30.749Z,3.80
2018-05-15T12:42:56.960Z,5.60
2018-05-15T12:45:23.890Z,3.87
2018-05-15T12:47:50.911Z,4.73
2018-05-15T12:50:17.117Z,4.33
2018-05-15T12:52:43.304Z,4.63
2018-05-15T12:55:10.250Z,4.17
2018-05-15T12:57:37.110Z,5.30
2018-05-15T13:00:03.397Z,5.47
2018-05-15T13:02:29.633Z,4.53
2018-05-15T13:04:56.638Z,4.73
2018-05-15T13:07:22.767Z,5.93
2018-05-15T13:09:48.971Z,5.30
2018-05-15T13:12:15.180Z,5.00
2018-05-15T13:14:41.428Z,5.00
2018-05-15T13:17:07.594Z,5.50
2018-05-15T13:19:33.798Z,5.43
2018-05-15T13:22:00.167Z,5.50
2018-05-15T13:24:27.517Z,5.43
2018-05-15T13:26:53.821Z,5.93
2018-05-15T13:29:20.059Z,5.47
2018-05-15T13:31:46.232Z,5.30
2018-05-15T13:34:12.394Z,3.73
2018-05-15T13:36:38.588Z,4.20
2018-05-15T13:39:05.550Z,3.83
2018-05-15T13:41:31.779Z,3.70
2018-05-15T13:43:57.902Z,4.20
2018-05-15T13:46:24.113Z,4.13
2018-05-15T13:48:51.057Z,4.33
2018-05-15T13:51:17.977Z,4.50
2018-05-15T13:53:44.191Z,4.67
2018-05-15T13:56:10.420Z,4.47
2018-05-15T13:58:36.675Z,5.70
2018-05-15T14:01:03.563Z,4.73
2018-05-15T14:03:29.758Z,4.20
2018-05-15T14:05:56.697Z,3.83
2018-05-15T14:08:23.611Z,3.83
2018-05-15T14:10:49.825Z,4.10
2018-05-15T14:13:16.003Z,2.80
2018-05-15T14:15:42.850Z,3.07
2018-05-15T14:18:09.759Z,4.20
2018-05-15T14:20:35.975Z,2.73
2018-05-15T14:23:02.105Z,2.80
2018-05-15T14:25:29.073Z,2.53
2018-05-15T14:27:55.994Z,2.27
2018-05-15T14:30:22.182Z,2.73
2018-05-15T14:32:48.383Z,3.27
2018-05-15T14:35:15.358Z,3.40
2018-05-15T14:37:41.603Z,2.83
2018-05-15T14:40:07.748Z,2.77
2018-05-15T14:42:46.309Z,2.77
2018-05-15T14:45:14.172Z,2.90
2018-05-15T14:47:41.169Z,3.77
2018-05-15T14:50:07.358Z,3.87
2018-05-15T14:52:34.278Z,3.97
2018-05-15T14:55:00.425Z,4.20
2018-05-15T14:57:27.413Z,4.00
2018-05-15T14:59:54.254Z,4.03
2018-05-15T15:02:20.428Z,4.00
2018-05-15T15:04:47.333Z,4.43
2018-05-15T15:07:13.508Z,3.33
2018-05-15T15:09:40.425Z,2.80
2018-05-15T15:12:06.648Z,1.93
2018-05-15T15:14:32.852Z,2.80
2018-05-15T15:16:58.985Z,2.30
2018-05-15T15:19:25.256Z,2.40
2018-05-15T15:21:52.158Z,2.33
2018-05-15T15:24:18.381Z,2.80
2018-05-15T15:26:44.561Z,2.27
2018-05-15T15:29:11.485Z,1.50
2018-05-15T15:31:37.758Z,1.60
2018-05-15T15:34:03.903Z,2.63
2018-05-15T15:36:30.024Z,2.03
2018-05-15T15:38:56.209Z,2.07
2018-05-15T15:41:23.168Z,2.77
2018-05-15T15:43:49.501Z,3.00
2018-05-15T15:46:16.323Z,3.47
2018-05-15T15:48:43.216Z,3.80
2018-05-15T15:51:09.448Z,3.70
2018-05-15T15:53:35.618Z,3.27
2018-05-15T15:56:01.766Z,3.53
2018-05-15T15:58:28.693Z,3.37
2018-05-15T16:00:55.617Z,2.73
2018-05-15T16:03:21.786Z,3.70
2018-05-15T16:05:48.684Z,3.20
2018-05-15T16:08:14.875Z,3.87
2018-05-15T16:10:41.063Z,3.50
2018-05-15T16:13:07.993Z,3.50
2018-05-15T16:15:34.292Z,4.27
2018-05-15T16:18:01.119Z,3.93
2018-05-15T16:20:27.277Z,4.73
2018-05-15T16:22:53.570Z,4.33
2018-05-15T16:25:19.666Z,5.20
2018-05-15T16:27:46.632Z,4.73
2018-05-15T16:30:12.832Z,4.97
2018-05-15T16:32:39.017Z,5.40
2018-05-15T16:35:05.237Z,5.13
2018-05-15T16:37:31.550Z,4.90
2018-05-15T16:39:57.646Z,4.97
2018-05-15T16:42:23.847Z,4.77
2018-05-15T16:44:50.001Z,5.07
2018-05-15T16:47:16.191Z,4.53
2018-05-15T16:49:42.430Z,4.40
2018-05-15T16:52:08.650Z,4.70
2018-05-15T16:54:34.863Z,3.63
2018-05-15T16:57:01.038Z,3.33
2018-05-15T16:59:27.955Z,4.63
2018-05-15T17:01:54.121Z,3.67
2018-05-15T17:04:21.060Z,3.70
2018-05-15T17:06:47.289Z,4.00
2018-05-15T17:09:14.210Z,3.90
2018-05-15T17:11:41.217Z,3.70
2018-05-15T17:14:07.421Z,3.53
2018-05-15T17:16:33.635Z,3.23
2018-05-15T17:19:00.606Z,4.40
2018-05-15T17:21:26.827Z,3.40
2018-05-15T17:23:53.014Z,4.23
2018-05-15T17:26:19.275Z,3.63
2018-05-15T17:28:46.257Z,3.87
2018-05-15T17:31:12.432Z,3.40
2018-05-15T17:33:38.597Z,3.40
2018-05-15T17:36:04.804Z,3.77
2018-05-15T17:38:31.722Z,3.30
2018-05-15T17:40:57.988Z,3.83
2018-05-15T17:43:24.906Z,4.17
2018-05-15T17:45:51.059Z,3.73
2018-05-15T17:48:17.272Z,4.40
2018-05-15T17:50:44.193Z,4.80
2018-05-15T17:53:10.502Z,4.70
2018-05-15T17:55:36.643Z,4.90
2018-05-15T17:58:02.864Z,5.10
2018-05-15T18:00:29.081Z,6.20
2018-05-15T18:02:55.276Z,6.47
2018-05-15T18:05:21.432Z,7.13
2018-05-15T18:07:47.598Z,6.30
2018-05-15T18:10:13.788Z,6.83
2018-05-15T18:12:39.996Z,7.10
2018-05-15T18:15:06.180Z,7.03
2018-05-15T18:17:32.367Z,6.80
2018-05-15T18:19:58.579Z,8.00
2018-05-15T18:22:24.929Z,6.93
2018-05-15T18:24:51.098Z,7.40
2018-05-15T18:27:18.868Z,6.57
2018-05-15T18:29:45.842Z,8.10
2018-05-15T18:32:12.049Z,6.47
2018-05-15T18:34:38.944Z,7.67
2018-05-15T18:37:05.161Z,7.00
2018-05-15T18:39:31.412Z,7.80
2018-05-15T18:41:57.609Z,7.93
2018-05-15T18:44:23.939Z,8.03
2018-05-15T18:46:50.446Z,7.80
2018-05-15T18:49:17.287Z,8.30
2018-05-15T18:51:44.249Z,7.63
2018-05-15T18:54:10.421Z,7.80
2018-05-15T18:56:38.177Z,8.23
2018-05-15T18:59:04.976Z,7.20
2018-05-15T19:01:31.454Z,8.40
2018-05-15T19:03:58.907Z,8.80
2018-05-15T19:06:25.191Z,7.10
2018-05-15T19:08:51.545Z,8.10
2018-05-15T19:11:18.712Z,8.30
2018-05-15T19:13:44.951Z,7.60
2018-05-15T19:16:11.170Z,8.00
2018-05-15T19:18:37.326Z,8.10
2018-05-15T19:21:03.520Z,8.60
2018-05-15T19:23:29.822Z,8.37
2018-05-15T19:25:56.052Z,7.67
2018-05-15T19:28:22.285Z,7.60
2018-05-15T19:30:48.605Z,7.97
2018-05-15T19:33:16.733Z,7.83
2018-05-15T19:35:42.964Z,6.70
2018-05-15T19:38:09.226Z,7.50
2018-05-15T19:40:41.067Z,7.70
2018-05-15T19:43:07.272Z,7.63
2018-05-15T19:45:33.479Z,8.67
2018-05-15T19:47:59.639Z,7.40
2018-05-15T19:50:25.925Z,8.00
2018-05-15T19:52:52.276Z,9.00
2018-05-15T19:55:18.555Z,8.00
2018-05-15T19:57:45.567Z,10.20
2018-05-15T20:00:11.765Z,8.33
2018-05-15T20:02:37.994Z,8.97
2018-05-15T20:05:04.160Z,8.80
2018-05-15T20:07:30.380Z,9.33
2018-05-15T20:09:56.545Z,9.37
2018-05-15T20:12:23.539Z,8.97
2018-05-15T20:14:49.698Z,8.60
2018-05-15T20:17:15.908Z,9.03
2018-05-15T20:19:42.116Z,10.00
2018-05-15T20:22:08.280Z,8.80
2018-05-15T20:24:34.462Z,8.80
2018-05-15T20:27:00.669Z,9.20
2018-05-15T20:29:26.944Z,9.33
2018-05-15T20:31:53.188Z,9.30
2018-05-15T20:34:19.392Z,11.00
2018-05-15T20:36:45.609Z,9.10
2018-05-15T20:39:11.867Z,9.43
2018-05-15T20:41:38.104Z,9.33
2018-05-15T20:44:04.283Z,8.53
2018-05-15T20:46:30.478Z,8.63
2018-05-15T20:48:57.411Z,9.03
2018-05-15T20:51:24.384Z,8.53
2018-05-15T20:53:50.863Z,9.43
2018-05-15T20:56:17.092Z,9.70
2018-05-15T20:58:43.325Z,9.93
2018-05-15T21:01:09.571Z,9.53
2018-05-15T21:03:35.809Z,9.67
2018-05-15T21:06:02.811Z,10.53
2018-05-15T21:08:29.065Z,10.00
2018-05-15T21:10:55.244Z,10.60
2018-05-15T21:13:21.437Z,10.70
2018-05-15T21:15:47.573Z,9.80
2018-05-15T21:18:14.491Z,8.70
2018-05-15T21:20:40.676Z,9.77
2018-05-15T21:23:06.868Z,10.73
2018-05-15T21:25:33.734Z,9.23
2018-05-15T21:27:59.975Z,9.63
2018-05-15T21:30:26.182Z,9.70
2018-05-15T21:32:52.409Z,9.17
2018-05-15T21:35:18.654Z,9.43
2018-05-15T21:37:44.820Z,9.50
2018-05-15T21:40:11.084Z,9.77
2018-05-15T21:42:38.003Z,9.40
2018-05-15T21:45:04.211Z,8.30
2018-05-15T21:47:30.376Z,9.70
2018-05-15T21:49:57.378Z,9.27
2018-05-15T21:52:23.498Z,9.30
2018-05-15T21:54:49.726Z,10.00
2018-05-15T21:57:15.922Z,9.20
2018-05-15T21:59:42.901Z,8.90
2018-05-15T22:02:09.130Z,9.57
2018-05-15T22:04:35.349Z,9.80
2018-05-15T22:07:01.589Z,9.30
2018-05-15T22:09:27.821Z,10.93
2018-05-15T22:12:06.317Z,9.30
2018-05-15T22:14:44.731Z,9.70
2018-05-15T22:17:23.096Z,9.30
2018-05-15T22:20:01.524Z,9.43
2018-05-15T22:22:28.249Z,9.70
2018-05-15T22:24:54.434Z,8.90
2018-05-15T22:27:20.609Z,9.43
2018-05-15T22:29:46.770Z,9.87
2018-05-15T22:32:12.930Z,9.73
2018-05-15T22:34:39.118Z,10.03
2018-05-15T22:37:05.351Z,9.87
2018-05-15T22:39:31.586Z,10.87
2018-05-15T22:41:57.834Z,9.70
2018-05-15T22:44:24.007Z,9.30
2018-05-15T22:46:50.930Z,10.67
2018-05-15T22:49:17.134Z,9.37
2018-05-15T22:51:43.383Z,10.10
2018-05-15T22:54:09.619Z,8.60
2018-05-15T22:56:35.861Z,9.23
2018-05-15T22:59:02.052Z,9.60
2018-05-15T23:01:28.256Z,9.40
2018-05-15T23:03:54.434Z,9.00
2018-05-15T23:06:20.685Z,10.47
2018-05-15T23:08:47.599Z,9.67
2018-05-15T23:11:13.829Z,9.70
2018-05-15T23:13:39.989Z,9.60
2018-05-15T23:16:06.939Z,9.67
2018-05-15T23:18:33.898Z,10.00
2018-05-15T23:21:00.048Z,9.60
2018-05-15T23:23:26.247Z,8.50
2018-05-15T23:25:52.408Z,9.83
2018-05-15T23:28:18.623Z,9.40
2018-05-15T23:30:44.829Z,8.97
2018-05-15T23:33:11.014Z,8.30
2018-05-15T23:35:37.150Z,8.50
2018-05-15T23:38:03.307Z,8.87
2018-05-15T23:40:29.532Z,8.77
2018-05-15T23:42:55.758Z,10.43
2018-05-15T23:45:21.935Z,9.80
2018-05-15T23:47:48.118Z,9.33
2018-05-15T23:50:14.383Z,8.60
2018-05-15T23:52:40.544Z,9.37
2018-05-15T23:55:06.752Z,9.93
2018-05-15T23:57:32.965Z,9.33
2018-05-15T23:59:59.234Z,10.30
